sensor_id;sensor_type;location;lat;lon;timestamp;P1;durP1;ratioP1;P2;durP2;ratioP2
72319;SDS011;60269;52.502;16.732;2022-10-20T00:01:46;16.05;;;4.22;;
72319;SDS011;60269;52.502;16.732;2022-10-20T00:05:19;18.33;;;4.87;;
72319;SDS011;60269;52.502;16.732;2022-10-20T00:08:51;14.00;;;5.03;;
72319;SDS011;60269;52.502;16.732;2022-10-20T00:12:24;18.48;;;5.72;;
72319;SDS011;60269;52.502;16.732;2022-10-20T00:15:56;11.32;;;4.40;;
72319;SDS011;60269;52.502;16.732;2022-10-20T00:19:30;17.23;;;4.70;;
72319;SDS011;60269;52.502;16.732;2022-10-20T00:23:02;13.23;;;4.25;;
72319;SDS011;60269;52.502;16.732;2022-10-20T00:26:34;12.15;;;4.18;;
72319;SDS011;60269;52.502;16.732;2022-10-20T00:30:06;16.97;;;4.70;;
72319;SDS011;60269;52.502;16.732;2022-10-20T00:33:38;17.08;;;5.07;;
72319;SDS011;60269;52.502;16.732;2022-10-20T00:37:10;14.63;;;5.32;;
72319;SDS011;60269;52.502;16.732;2022-10-20T00:40:42;12.70;;;5.30;;
72319;SDS011;60269;52.502;16.732;2022-10-20T00:48:18;18.65;;;5.43;;
72319;SDS011;60269;52.502;16.732;2022-10-20T00:51:51;16.15;;;5.07;;
72319;SDS011;60269;52.502;16.732;2022-10-20T00:55:26;19.20;;;6.03;;
72319;SDS011;60269;52.502;16.732;2022-10-20T00:59:00;19.65;;;5.05;;
72319;SDS011;60269;52.502;16.732;2022-10-20T01:02:34;18.65;;;6.18;;
72319;SDS011;60269;52.502;16.732;2022-10-20T01:06:06;19.03;;;5.17;;
72319;SDS011;60269;52.502;16.732;2022-10-20T01:09:38;15.85;;;5.32;;
72319;SDS011;60269;52.502;16.732;2022-10-20T01:13:24;16.83;;;5.68;;
72319;SDS011;60269;52.502;16.732;2022-10-20T01:17:06;15.80;;;5.40;;
72319;SDS011;60269;52.502;16.732;2022-10-20T01:24:45;13.50;;;5.43;;
72319;SDS011;60269;52.502;16.732;2022-10-20T01:39:42;16.13;;;5.55;;
72319;SDS011;60269;52.502;16.732;2022-10-20T01:43:21;15.17;;;4.90;;
72319;SDS011;60269;52.502;16.732;2022-10-20T01:46:55;15.95;;;5.72;;
72319;SDS011;60269;52.502;16.732;2022-10-20T01:50:28;15.63;;;5.32;;
72319;SDS011;60269;52.502;16.732;2022-10-20T01:54:00;16.00;;;5.67;;
72319;SDS011;60269;52.502;16.732;2022-10-20T02:01:25;26.08;;;9.20;;
72319;SDS011;60269;52.502;16.732;2022-10-20T02:09:16;23.53;;;9.07;;
72319;SDS011;60269;52.502;16.732;2022-10-20T02:12:57;26.33;;;9.45;;
72319;SDS011;60269;52.502;16.732;2022-10-20T02:16:33;25.88;;;9.65;;
72319;SDS011;60269;52.502;16.732;2022-10-20T02:20:08;22.00;;;8.40;;
72319;SDS011;60269;52.502;16.732;2022-10-20T02:23:43;21.38;;;8.18;;
72319;SDS011;60269;52.502;16.732;2022-10-20T02:27:19;21.52;;;6.97;;
72319;SDS011;60269;52.502;16.732;2022-10-20T02:30:55;21.63;;;8.83;;
72319;SDS011;60269;52.502;16.732;2022-10-20T02:34:27;24.67;;;8.95;;
72319;SDS011;60269;52.502;16.732;2022-10-20T02:37:59;22.95;;;8.43;;
72319;SDS011;60269;52.502;16.732;2022-10-20T02:41:31;18.52;;;5.93;;
72319;SDS011;60269;52.502;16.732;2022-10-20T02:45:03;21.47;;;7.50;;
72319;SDS011;60269;52.502;16.732;2022-10-20T02:48:36;22.15;;;8.52;;
72319;SDS011;60269;52.502;16.732;2022-10-20T02:52:08;23.45;;;7.68;;
72319;SDS011;60269;52.502;16.732;2022-10-20T02:55:41;17.30;;;7.07;;
72319;SDS011;60269;52.502;16.732;2022-10-20T02:59:14;23.65;;;8.50;;
72319;SDS011;60269;52.502;16.732;2022-10-20T03:02:47;21.60;;;6.93;;
72319;SDS011;60269;52.502;16.732;2022-10-20T03:06:19;22.70;;;7.13;;
72319;SDS011;60269;52.502;16.732;2022-10-20T03:09:50;18.50;;;7.45;;
72319;SDS011;60269;52.502;16.732;2022-10-20T03:13:22;14.23;;;5.68;;
72319;SDS011;60269;52.502;16.732;2022-10-20T03:16:54;21.42;;;7.53;;
72319;SDS011;60269;52.502;16.732;2022-10-20T03:20:26;16.87;;;6.80;;
72319;SDS011;60269;52.502;16.732;2022-10-20T03:23:58;18.00;;;7.18;;
72319;SDS011;60269;52.502;16.732;2022-10-20T03:27:30;15.95;;;6.30;;
72319;SDS011;60269;52.502;16.732;2022-10-20T03:31:02;17.67;;;5.87;;
72319;SDS011;60269;52.502;16.732;2022-10-20T03:34:34;18.67;;;6.03;;
72319;SDS011;60269;52.502;16.732;2022-10-20T03:38:05;14.98;;;5.80;;
72319;SDS011;60269;52.502;16.732;2022-10-20T03:41:37;16.80;;;6.03;;
72319;SDS011;60269;52.502;16.732;2022-10-20T03:45:09;22.08;;;5.70;;
72319;SDS011;60269;52.502;16.732;2022-10-20T03:48:45;20.83;;;7.68;;
72319;SDS011;60269;52.502;16.732;2022-10-20T03:52:17;19.00;;;6.97;;
72319;SDS011;60269;52.502;16.732;2022-10-20T03:55:49;25.30;;;7.20;;
72319;SDS011;60269;52.502;16.732;2022-10-20T03:59:20;20.73;;;6.97;;
72319;SDS011;60269;52.502;16.732;2022-10-20T04:02:56;19.25;;;7.20;;
72319;SDS011;60269;52.502;16.732;2022-10-20T04:06:27;17.13;;;7.27;;
72319;SDS011;60269;52.502;16.732;2022-10-20T04:09:59;18.17;;;6.88;;
72319;SDS011;60269;52.502;16.732;2022-10-20T04:13:32;23.30;;;7.30;;
72319;SDS011;60269;52.502;16.732;2022-10-20T04:17:05;20.60;;;6.40;;
72319;SDS011;60269;52.502;16.732;2022-10-20T04:20:36;18.63;;;6.25;;
72319;SDS011;60269;52.502;16.732;2022-10-20T04:24:14;17.13;;;6.75;;
72319;SDS011;60269;52.502;16.732;2022-10-20T04:27:45;17.05;;;6.50;;
72319;SDS011;60269;52.502;16.732;2022-10-20T04:31:17;16.27;;;6.47;;
72319;SDS011;60269;52.502;16.732;2022-10-20T04:34:49;19.27;;;6.80;;
72319;SDS011;60269;52.502;16.732;2022-10-20T04:38:21;19.23;;;7.78;;
72319;SDS011;60269;52.502;16.732;2022-10-20T04:41:52;18.77;;;7.07;;
72319;SDS011;60269;52.502;16.732;2022-10-20T04:45:24;18.13;;;7.13;;
72319;SDS011;60269;52.502;16.732;2022-10-20T04:48:56;22.77;;;7.10;;
72319;SDS011;60269;52.502;16.732;2022-10-20T04:52:28;20.17;;;6.97;;
72319;SDS011;60269;52.502;16.732;2022-10-20T04:56:01;18.00;;;6.82;;
72319;SDS011;60269;52.502;16.732;2022-10-20T04:59:33;17.10;;;6.57;;
72319;SDS011;60269;52.502;16.732;2022-10-20T05:03:05;21.17;;;6.88;;
72319;SDS011;60269;52.502;16.732;2022-10-20T05:06:37;17.20;;;6.60;;
72319;SDS011;60269;52.502;16.732;2022-10-20T05:10:09;18.00;;;7.38;;
72319;SDS011;60269;52.502;16.732;2022-10-20T05:13:41;21.08;;;7.10;;
72319;SDS011;60269;52.502;16.732;2022-10-20T05:17:13;21.80;;;6.77;;
72319;SDS011;60269;52.502;16.732;2022-10-20T05:20:46;20.05;;;6.63;;
72319;SDS011;60269;52.502;16.732;2022-10-20T05:24:37;14.55;;;6.18;;
72319;SDS011;60269;52.502;16.732;2022-10-20T05:28:09;17.53;;;7.13;;
72319;SDS011;60269;52.502;16.732;2022-10-20T05:31:41;19.23;;;7.32;;
72319;SDS011;60269;52.502;16.732;2022-10-20T05:35:14;24.45;;;8.70;;
72319;SDS011;60269;52.502;16.732;2022-10-20T05:38:46;19.88;;;9.23;;
72319;SDS011;60269;52.502;16.732;2022-10-20T05:42:18;18.27;;;8.00;;
72319;SDS011;60269;52.502;16.732;2022-10-20T05:45:52;21.67;;;7.18;;
72319;SDS011;60269;52.502;16.732;2022-10-20T05:49:25;23.48;;;8.07;;
72319;SDS011;60269;52.502;16.732;2022-10-20T05:52:57;18.07;;;6.97;;
72319;SDS011;60269;52.502;16.732;2022-10-20T05:56:29;19.40;;;6.47;;
72319;SDS011;60269;52.502;16.732;2022-10-20T06:00:02;23.27;;;7.68;;
72319;SDS011;60269;52.502;16.732;2022-10-20T06:03:35;23.23;;;8.23;;
72319;SDS011;60269;52.502;16.732;2022-10-20T06:07:07;24.17;;;8.27;;
72319;SDS011;60269;52.502;16.732;2022-10-20T06:10:42;24.55;;;8.18;;
72319;SDS011;60269;52.502;16.732;2022-10-20T06:14:14;19.50;;;7.82;;
72319;SDS011;60269;52.502;16.732;2022-10-20T06:17:46;22.83;;;8.47;;
72319;SDS011;60269;52.502;16.732;2022-10-20T06:21:18;27.13;;;8.98;;
72319;SDS011;60269;52.502;16.732;2022-10-20T06:24:52;30.55;;;9.35;;
72319;SDS011;60269;52.502;16.732;2022-10-20T06:28:24;30.77;;;8.87;;
72319;SDS011;60269;52.502;16.732;2022-10-20T06:31:56;24.10;;;9.00;;
72319;SDS011;60269;52.502;16.732;2022-10-20T06:35:29;21.08;;;8.30;;
72319;SDS011;60269;52.502;16.732;2022-10-20T06:39:02;25.50;;;9.60;;
72319;SDS011;60269;52.502;16.732;2022-10-20T06:42:35;19.90;;;8.27;;
72319;SDS011;60269;52.502;16.732;2022-10-20T06:46:09;22.27;;;8.13;;
72319;SDS011;60269;52.502;16.732;2022-10-20T06:49:42;26.65;;;9.73;;
72319;SDS011;60269;52.502;16.732;2022-10-20T06:53:14;25.40;;;9.70;;
72319;SDS011;60269;52.502;16.732;2022-10-20T06:56:46;26.88;;;9.55;;
72319;SDS011;60269;52.502;16.732;2022-10-20T07:00:18;24.83;;;9.18;;
72319;SDS011;60269;52.502;16.732;2022-10-20T07:03:51;22.60;;;8.67;;
72319;SDS011;60269;52.502;16.732;2022-10-20T07:07:25;23.15;;;9.38;;
72319;SDS011;60269;52.502;16.732;2022-10-20T07:10:58;25.20;;;9.50;;
72319;SDS011;60269;52.502;16.732;2022-10-20T07:14:32;27.40;;;9.27;;
72319;SDS011;60269;52.502;16.732;2022-10-20T07:18:07;18.50;;;8.07;;
72319;SDS011;60269;52.502;16.732;2022-10-20T07:21:39;22.35;;;9.32;;
72319;SDS011;60269;52.502;16.732;2022-10-20T07:25:16;18.50;;;8.80;;
72319;SDS011;60269;52.502;16.732;2022-10-20T07:28:49;24.33;;;9.23;;
72319;SDS011;60269;52.502;16.732;2022-10-20T07:32:26;21.90;;;9.03;;
72319;SDS011;60269;52.502;16.732;2022-10-20T07:35:58;22.55;;;8.55;;
72319;SDS011;60269;52.502;16.732;2022-10-20T07:39:30;18.90;;;8.57;;
72319;SDS011;60269;52.502;16.732;2022-10-20T07:43:02;22.43;;;8.47;;
72319;SDS011;60269;52.502;16.732;2022-10-20T07:46:34;15.10;;;6.85;;
72319;SDS011;60269;52.502;16.732;2022-10-20T07:50:07;19.55;;;7.35;;
72319;SDS011;60269;52.502;16.732;2022-10-20T07:53:39;17.60;;;7.15;;
72319;SDS011;60269;52.502;16.732;2022-10-20T07:57:11;16.53;;;6.57;;
72319;SDS011;60269;52.502;16.732;2022-10-20T08:00:43;16.60;;;6.55;;
72319;SDS011;60269;52.502;16.732;2022-10-20T08:04:15;14.25;;;6.00;;
72319;SDS011;60269;52.502;16.732;2022-10-20T08:07:47;13.60;;;5.80;;
72319;SDS011;60269;52.502;16.732;2022-10-20T08:11:19;12.77;;;5.93;;
72319;SDS011;60269;52.502;16.732;2022-10-20T08:14:51;14.10;;;5.75;;
72319;SDS011;60269;52.502;16.732;2022-10-20T08:18:25;15.15;;;5.93;;
72319;SDS011;60269;52.502;16.732;2022-10-20T08:22:01;23.50;;;6.20;;
72319;SDS011;60269;52.502;16.732;2022-10-20T08:25:34;14.47;;;5.87;;
72319;SDS011;60269;52.502;16.732;2022-10-20T08:29:05;15.02;;;4.97;;
72319;SDS011;60269;52.502;16.732;2022-10-20T08:32:37;13.50;;;4.45;;
72319;SDS011;60269;52.502;16.732;2022-10-20T08:36:10;11.13;;;4.03;;
72319;SDS011;60269;52.502;16.732;2022-10-20T08:39:44;13.17;;;3.47;;
72319;SDS011;60269;52.502;16.732;2022-10-20T08:43:17;10.93;;;3.40;;
72319;SDS011;60269;52.502;16.732;2022-10-20T08:46:50;9.73;;;3.28;;
72319;SDS011;60269;52.502;16.732;2022-10-20T08:50:22;8.70;;;2.40;;
72319;SDS011;60269;52.502;16.732;2022-10-20T08:53:58;8.93;;;2.77;;
72319;SDS011;60269;52.502;16.732;2022-10-20T08:57:32;11.05;;;2.40;;
72319;SDS011;60269;52.502;16.732;2022-10-20T09:01:13;6.75;;;2.10;;
72319;SDS011;60269;52.502;16.732;2022-10-20T09:04:52;10.63;;;1.87;;
72319;SDS011;60269;52.502;16.732;2022-10-20T09:08:29;8.30;;;1.97;;
72319;SDS011;60269;52.502;16.732;2022-10-20T09:12:02;9.63;;;2.03;;
72319;SDS011;60269;52.502;16.732;2022-10-20T09:15:37;8.13;;;1.70;;
72319;SDS011;60269;52.502;16.732;2022-10-20T09:19:12;8.13;;;2.10;;
72319;SDS011;60269;52.502;16.732;2022-10-20T09:22:48;7.73;;;1.80;;
72319;SDS011;60269;52.502;16.732;2022-10-20T09:26:21;8.48;;;2.28;;
72319;SDS011;60269;52.502;16.732;2022-10-20T09:30:19;6.95;;;1.80;;
72319;SDS011;60269;52.502;16.732;2022-10-20T09:33:53;10.00;;;1.40;;
72319;SDS011;60269;52.502;16.732;2022-10-20T09:37:24;8.67;;;1.70;;
72319;SDS011;60269;52.502;16.732;2022-10-20T09:44:47;8.00;;;1.73;;
72319;SDS011;60269;52.502;16.732;2022-10-20T09:52:03;7.93;;;1.77;;
72319;SDS011;60269;52.502;16.732;2022-10-20T09:55:48;6.63;;;1.40;;
72319;SDS011;60269;52.502;16.732;2022-10-20T09:59:25;8.88;;;2.05;;
72319;SDS011;60269;52.502;16.732;2022-10-20T10:06:52;10.70;;;1.63;;
72319;SDS011;60269;52.502;16.732;2022-10-20T10:10:26;8.07;;;1.95;;
72319;SDS011;60269;52.502;16.732;2022-10-20T10:14:02;7.78;;;1.63;;
72319;SDS011;60269;52.502;16.732;2022-10-20T10:17:36;5.83;;;1.20;;
72319;SDS011;60269;52.502;16.732;2022-10-20T10:21:13;6.37;;;1.60;;
72319;SDS011;60269;52.502;16.732;2022-10-20T10:24:48;6.43;;;1.60;;
72319;SDS011;60269;52.502;16.732;2022-10-20T10:28:23;5.85;;;1.38;;
72319;SDS011;60269;52.502;16.732;2022-10-20T10:32:03;6.03;;;1.80;;
72319;SDS011;60269;52.502;16.732;2022-10-20T10:35:45;6.57;;;1.50;;
72319;SDS011;60269;52.502;16.732;2022-10-20T10:39:18;6.43;;;1.35;;
72319;SDS011;60269;52.502;16.732;2022-10-20T10:46:48;6.27;;;1.20;;
72319;SDS011;60269;52.502;16.732;2022-10-20T10:50:53;6.93;;;0.97;;
72319;SDS011;60269;52.502;16.732;2022-10-20T10:58:35;5.60;;;0.93;;
72319;SDS011;60269;52.502;16.732;2022-10-20T11:02:22;5.93;;;1.13;;
72319;SDS011;60269;52.502;16.732;2022-10-20T11:06:11;4.93;;;1.00;;
72319;SDS011;60269;52.502;16.732;2022-10-20T11:14:14;4.53;;;1.10;;
72319;SDS011;60269;52.502;16.732;2022-10-20T11:33:17;5.67;;;1.17;;
72319;SDS011;60269;52.502;16.732;2022-10-20T11:41:49;6.65;;;1.85;;
72319;SDS011;60269;52.502;16.732;2022-10-20T11:45:14;7.55;;;1.77;;
72319;SDS011;60269;52.502;16.732;2022-10-20T11:48:58;10.48;;;2.33;;
72319;SDS011;60269;52.502;16.732;2022-10-20T12:15:33;7.45;;;1.95;;
72319;SDS011;60269;52.502;16.732;2022-10-20T12:19:19;6.10;;;2.20;;
72319;SDS011;60269;52.502;16.732;2022-10-20T12:23:00;7.73;;;2.40;;
72319;SDS011;60269;52.502;16.732;2022-10-20T12:26:35;9.45;;;2.20;;
72319;SDS011;60269;52.502;16.732;2022-10-20T12:34:12;9.35;;;2.15;;
72319;SDS011;60269;52.502;16.732;2022-10-20T12:37:54;8.63;;;1.80;;
72319;SDS011;60269;52.502;16.732;2022-10-20T12:41:33;6.38;;;2.15;;
72319;SDS011;60269;52.502;16.732;2022-10-20T12:48:54;7.32;;;2.80;;
72319;SDS011;60269;52.502;16.732;2022-10-20T12:52:32;7.43;;;3.57;;
72319;SDS011;60269;52.502;16.732;2022-10-20T12:56:09;6.90;;;2.00;;
72319;SDS011;60269;52.502;16.732;2022-10-20T12:59:44;8.27;;;2.08;;
72319;SDS011;60269;52.502;16.732;2022-10-20T13:15:11;6.93;;;1.50;;
72319;SDS011;60269;52.502;16.732;2022-10-20T13:18:47;6.15;;;1.55;;
72319;SDS011;60269;52.502;16.732;2022-10-20T13:22:43;5.17;;;1.80;;
72319;SDS011;60269;52.502;16.732;2022-10-20T13:30:05;6.63;;;1.88;;
72319;SDS011;60269;52.502;16.732;2022-10-20T13:33:51;5.88;;;1.83;;
72319;SDS011;60269;52.502;16.732;2022-10-20T13:45:17;7.82;;;2.38;;
72319;SDS011;60269;52.502;16.732;2022-10-20T13:52:33;9.57;;;2.83;;
72319;SDS011;60269;52.502;16.732;2022-10-20T14:03:58;6.82;;;2.53;;
72319;SDS011;60269;52.502;16.732;2022-10-20T14:07:40;6.53;;;2.33;;
72319;SDS011;60269;52.502;16.732;2022-10-20T14:11:13;6.27;;;1.90;;
72319;SDS011;60269;52.502;16.732;2022-10-20T14:14:45;6.63;;;1.40;;
72319;SDS011;60269;52.502;16.732;2022-10-20T14:18:21;7.82;;;2.58;;
72319;SDS011;60269;52.502;16.732;2022-10-20T14:21:55;7.88;;;2.28;;
72319;SDS011;60269;52.502;16.732;2022-10-20T14:25:29;7.67;;;2.27;;
72319;SDS011;60269;52.502;16.732;2022-10-20T14:29:02;8.18;;;2.22;;
72319;SDS011;60269;52.502;16.732;2022-10-20T14:32:37;7.07;;;2.00;;
72319;SDS011;60269;52.502;16.732;2022-10-20T14:36:18;6.50;;;2.00;;
72319;SDS011;60269;52.502;16.732;2022-10-20T14:40:01;9.40;;;2.10;;
72319;SDS011;60269;52.502;16.732;2022-10-20T14:43:42;6.88;;;2.05;;
72319;SDS011;60269;52.502;16.732;2022-10-20T14:47:18;9.82;;;2.47;;
72319;SDS011;60269;52.502;16.732;2022-10-20T14:50:51;8.05;;;2.08;;
72319;SDS011;60269;52.502;16.732;2022-10-20T15:05:44;8.93;;;1.90;;
72319;SDS011;60269;52.502;16.732;2022-10-20T15:09:25;5.73;;;1.40;;
72319;SDS011;60269;52.502;16.732;2022-10-20T15:13:02;7.93;;;2.22;;
72319;SDS011;60269;52.502;16.732;2022-10-20T15:16:39;9.10;;;1.92;;
72319;SDS011;60269;52.502;16.732;2022-10-20T15:24:00;9.63;;;2.47;;
72319;SDS011;60269;52.502;16.732;2022-10-20T15:27:32;9.32;;;2.40;;
72319;SDS011;60269;52.502;16.732;2022-10-20T15:31:06;7.05;;;2.13;;
72319;SDS011;60269;52.502;16.732;2022-10-20T15:34:39;8.40;;;2.30;;
72319;SDS011;60269;52.502;16.732;2022-10-20T15:38:10;11.33;;;2.93;;
72319;SDS011;60269;52.502;16.732;2022-10-20T15:41:42;11.18;;;2.97;;
72319;SDS011;60269;52.502;16.732;2022-10-20T15:45:15;9.60;;;2.72;;
72319;SDS011;60269;52.502;16.732;2022-10-20T15:48:50;9.63;;;3.10;;
72319;SDS011;60269;52.502;16.732;2022-10-20T15:52:22;15.30;;;3.93;;
72319;SDS011;60269;52.502;16.732;2022-10-20T15:55:54;15.05;;;5.18;;
72319;SDS011;60269;52.502;16.732;2022-10-20T15:59:25;13.23;;;4.80;;
72319;SDS011;60269;52.502;16.732;2022-10-20T16:02:58;13.87;;;5.67;;
72319;SDS011;60269;52.502;16.732;2022-10-20T16:06:29;16.63;;;5.23;;
72319;SDS011;60269;52.502;16.732;2022-10-20T16:10:02;12.80;;;4.47;;
72319;SDS011;60269;52.502;16.732;2022-10-20T16:13:34;13.25;;;4.57;;
72319;SDS011;60269;52.502;16.732;2022-10-20T16:17:09;11.10;;;4.17;;
72319;SDS011;60269;52.502;16.732;2022-10-20T16:20:40;15.43;;;5.73;;
72319;SDS011;60269;52.502;16.732;2022-10-20T16:24:12;14.95;;;5.00;;
72319;SDS011;60269;52.502;16.732;2022-10-20T16:27:44;13.07;;;5.30;;
72319;SDS011;60269;52.502;16.732;2022-10-20T16:31:16;14.87;;;4.90;;
72319;SDS011;60269;52.502;16.732;2022-10-20T16:34:48;12.00;;;4.60;;
72319;SDS011;60269;52.502;16.732;2022-10-20T16:38:23;12.00;;;5.03;;
72319;SDS011;60269;52.502;16.732;2022-10-20T16:41:55;10.68;;;4.35;;
72319;SDS011;60269;52.502;16.732;2022-10-20T16:45:27;11.03;;;4.37;;
72319;SDS011;60269;52.502;16.732;2022-10-20T16:48:59;9.57;;;3.90;;
72319;SDS011;60269;52.502;16.732;2022-10-20T16:52:31;12.82;;;4.82;;
72319;SDS011;60269;52.502;16.732;2022-10-20T16:56:03;16.35;;;5.28;;
72319;SDS011;60269;52.502;16.732;2022-10-20T16:59:36;20.20;;;7.17;;
72319;SDS011;60269;52.502;16.732;2022-10-20T17:03:08;14.52;;;6.50;;
72319;SDS011;60269;52.502;16.732;2022-10-20T17:06:42;17.98;;;6.45;;
72319;SDS011;60269;52.502;16.732;2022-10-20T17:10:16;22.67;;;7.93;;
72319;SDS011;60269;52.502;16.732;2022-10-20T17:13:48;16.90;;;7.03;;
72319;SDS011;60269;52.502;16.732;2022-10-20T17:17:21;16.60;;;6.88;;
72319;SDS011;60269;52.502;16.732;2022-10-20T17:20:53;15.77;;;6.63;;
72319;SDS011;60269;52.502;16.732;2022-10-20T17:24:25;16.37;;;6.77;;
72319;SDS011;60269;52.502;16.732;2022-10-20T17:27:57;15.90;;;6.37;;
72319;SDS011;60269;52.502;16.732;2022-10-20T17:31:31;15.70;;;6.50;;
72319;SDS011;60269;52.502;16.732;2022-10-20T17:35:03;16.52;;;6.63;;
72319;SDS011;60269;52.502;16.732;2022-10-20T17:38:36;15.67;;;6.47;;
72319;SDS011;60269;52.502;16.732;2022-10-20T17:42:08;16.63;;;7.17;;
72319;SDS011;60269;52.502;16.732;2022-10-20T17:45:39;15.63;;;6.55;;
72319;SDS011;60269;52.502;16.732;2022-10-20T17:49:11;16.40;;;6.32;;
72319;SDS011;60269;52.502;16.732;2022-10-20T17:52:43;13.93;;;6.07;;
72319;SDS011;60269;52.502;16.732;2022-10-20T17:56:17;15.60;;;6.23;;
72319;SDS011;60269;52.502;16.732;2022-10-20T17:59:53;14.98;;;6.15;;
72319;SDS011;60269;52.502;16.732;2022-10-20T18:03:30;12.57;;;5.13;;
72319;SDS011;60269;52.502;16.732;2022-10-20T18:07:02;12.93;;;5.57;;
72319;SDS011;60269;52.502;16.732;2022-10-20T18:10:39;15.27;;;5.50;;
72319;SDS011;60269;52.502;16.732;2022-10-20T18:14:14;11.98;;;4.90;;
72319;SDS011;60269;52.502;16.732;2022-10-20T18:17:48;18.25;;;6.57;;
72319;SDS011;60269;52.502;16.732;2022-10-20T18:21:19;19.03;;;7.23;;
72319;SDS011;60269;52.502;16.732;2022-10-20T18:24:52;22.47;;;9.90;;
72319;SDS011;60269;52.502;16.732;2022-10-20T18:28:23;18.38;;;6.35;;
72319;SDS011;60269;52.502;16.732;2022-10-20T18:31:55;13.80;;;6.00;;
72319;SDS011;60269;52.502;16.732;2022-10-20T18:35:27;14.93;;;5.77;;
72319;SDS011;60269;52.502;16.732;2022-10-20T18:38:59;15.13;;;5.97;;
72319;SDS011;60269;52.502;16.732;2022-10-20T18:42:31;16.50;;;5.65;;
72319;SDS011;60269;52.502;16.732;2022-10-20T18:46:04;15.60;;;5.47;;
72319;SDS011;60269;52.502;16.732;2022-10-20T18:49:36;12.50;;;5.13;;
72319;SDS011;60269;52.502;16.732;2022-10-20T18:53:08;14.40;;;5.13;;
72319;SDS011;60269;52.502;16.732;2022-10-20T18:56:40;12.20;;;4.63;;
72319;SDS011;60269;52.502;16.732;2022-10-20T19:00:13;13.10;;;5.20;;
72319;SDS011;60269;52.502;16.732;2022-10-20T19:03:46;11.52;;;4.47;;
72319;SDS011;60269;52.502;16.732;2022-10-20T19:07:19;12.43;;;4.43;;
72319;SDS011;60269;52.502;16.732;2022-10-20T19:10:51;15.32;;;4.68;;
72319;SDS011;60269;52.502;16.732;2022-10-20T19:14:24;12.13;;;4.20;;
72319;SDS011;60269;52.502;16.732;2022-10-20T19:17:56;13.20;;;4.53;;
72319;SDS011;60269;52.502;16.732;2022-10-20T19:21:32;12.82;;;4.05;;
72319;SDS011;60269;52.502;16.732;2022-10-20T19:25:05;11.63;;;4.40;;
72319;SDS011;60269;52.502;16.732;2022-10-20T19:28:39;11.80;;;4.00;;
72319;SDS011;60269;52.502;16.732;2022-10-20T19:32:16;12.88;;;4.10;;
72319;SDS011;60269;52.502;16.732;2022-10-20T19:35:48;11.18;;;4.00;;
72319;SDS011;60269;52.502;16.732;2022-10-20T19:39:22;11.50;;;3.03;;
72319;SDS011;60269;52.502;16.732;2022-10-20T19:42:59;10.00;;;3.05;;
72319;SDS011;60269;52.502;16.732;2022-10-20T19:46:31;9.65;;;2.50;;
72319;SDS011;60269;52.502;16.732;2022-10-20T19:50:03;9.13;;;2.92;;
72319;SDS011;60269;52.502;16.732;2022-10-20T19:53:35;10.03;;;3.17;;
72319;SDS011;60269;52.502;16.732;2022-10-20T19:57:08;8.43;;;2.58;;
72319;SDS011;60269;52.502;16.732;2022-10-20T20:00:43;9.02;;;2.45;;
72319;SDS011;60269;52.502;16.732;2022-10-20T20:04:17;8.07;;;3.20;;
72319;SDS011;60269;52.502;16.732;2022-10-20T20:07:49;10.60;;;2.77;;
72319;SDS011;60269;52.502;16.732;2022-10-20T20:11:21;10.07;;;3.55;;
72319;SDS011;60269;52.502;16.732;2022-10-20T20:14:57;10.85;;;3.40;;
72319;SDS011;60269;52.502;16.732;2022-10-20T20:18:29;11.57;;;2.80;;
72319;SDS011;60269;52.502;16.732;2022-10-20T20:22:01;10.48;;;2.78;;
72319;SDS011;60269;52.502;16.732;2022-10-20T20:25:37;12.32;;;3.83;;
72319;SDS011;60269;52.502;16.732;2022-10-20T20:29:09;9.87;;;2.97;;
72319;SDS011;60269;52.502;16.732;2022-10-20T20:32:42;12.10;;;3.30;;
72319;SDS011;60269;52.502;16.732;2022-10-20T20:36:19;10.77;;;3.17;;
72319;SDS011;60269;52.502;16.732;2022-10-20T20:39:51;11.10;;;3.28;;
72319;SDS011;60269;52.502;16.732;2022-10-20T20:43:23;12.67;;;3.73;;
72319;SDS011;60269;52.502;16.732;2022-10-20T20:46:56;12.00;;;3.67;;
72319;SDS011;60269;52.502;16.732;2022-10-20T20:50:27;10.70;;;3.40;;
72319;SDS011;60269;52.502;16.732;2022-10-20T20:54:00;10.93;;;3.50;;
72319;SDS011;60269;52.502;16.732;2022-10-20T20:57:32;14.57;;;3.93;;
72319;SDS011;60269;52.502;16.732;2022-10-20T21:01:09;10.95;;;3.42;;
72319;SDS011;60269;52.502;16.732;2022-10-20T21:04:43;11.55;;;4.30;;
72319;SDS011;60269;52.502;16.732;2022-10-20T21:08:15;11.48;;;3.53;;
72319;SDS011;60269;52.502;16.732;2022-10-20T21:11:47;12.77;;;4.23;;
72319;SDS011;60269;52.502;16.732;2022-10-20T21:15:19;13.43;;;4.68;;
72319;SDS011;60269;52.502;16.732;2022-10-20T21:18:52;14.02;;;5.03;;
72319;SDS011;60269;52.502;16.732;2022-10-20T21:22:26;16.00;;;5.10;;
72319;SDS011;60269;52.502;16.732;2022-10-20T21:25:57;12.57;;;4.25;;
72319;SDS011;60269;52.502;16.732;2022-10-20T21:29:30;12.95;;;4.95;;
72319;SDS011;60269;52.502;16.732;2022-10-20T21:33:11;17.58;;;5.85;;
72319;SDS011;60269;52.502;16.732;2022-10-20T21:36:57;18.40;;;5.07;;
72319;SDS011;60269;52.502;16.732;2022-10-20T21:40:29;18.52;;;5.78;;
72319;SDS011;60269;52.502;16.732;2022-10-20T21:44:03;17.58;;;6.18;;
72319;SDS011;60269;52.502;16.732;2022-10-20T21:47:36;18.63;;;6.33;;
72319;SDS011;60269;52.502;16.732;2022-10-20T21:51:09;17.67;;;6.13;;
72319;SDS011;60269;52.502;16.732;2022-10-20T21:54:43;16.58;;;5.75;;
72319;SDS011;60269;52.502;16.732;2022-10-20T21:58:16;16.50;;;6.47;;
72319;SDS011;60269;52.502;16.732;2022-10-20T22:01:48;16.23;;;5.90;;
72319;SDS011;60269;52.502;16.732;2022-10-20T22:05:21;18.05;;;6.97;;
72319;SDS011;60269;52.502;16.732;2022-10-20T22:08:53;16.23;;;6.47;;
72319;SDS011;60269;52.502;16.732;2022-10-20T22:12:27;16.23;;;6.20;;
72319;SDS011;60269;52.502;16.732;2022-10-20T22:15:59;17.30;;;6.93;;
72319;SDS011;60269;52.502;16.732;2022-10-20T22:19:32;15.73;;;5.93;;
72319;SDS011;60269;52.502;16.732;2022-10-20T22:23:04;17.85;;;6.00;;
72319;SDS011;60269;52.502;16.732;2022-10-20T22:26:36;16.03;;;6.47;;
72319;SDS011;60269;52.502;16.732;2022-10-20T22:30:09;17.92;;;6.07;;
72319;SDS011;60269;52.502;16.732;2022-10-20T22:33:41;13.43;;;5.95;;
72319;SDS011;60269;52.502;16.732;2022-10-20T22:37:13;15.02;;;6.32;;
72319;SDS011;60269;52.502;16.732;2022-10-20T22:40:46;16.57;;;6.90;;
72319;SDS011;60269;52.502;16.732;2022-10-20T22:44:17;18.35;;;6.75;;
72319;SDS011;60269;52.502;16.732;2022-10-20T22:47:49;18.60;;;6.07;;
72319;SDS011;60269;52.502;16.732;2022-10-20T22:51:21;17.30;;;6.93;;
72319;SDS011;60269;52.502;16.732;2022-10-20T22:54:53;16.88;;;6.65;;
72319;SDS011;60269;52.502;16.732;2022-10-20T22:58:25;17.83;;;7.22;;
72319;SDS011;60269;52.502;16.732;2022-10-20T23:01:57;18.42;;;7.13;;
72319;SDS011;60269;52.502;16.732;2022-10-20T23:05:28;15.53;;;6.93;;
72319;SDS011;60269;52.502;16.732;2022-10-20T23:09:00;21.88;;;7.30;;
72319;SDS011;60269;52.502;16.732;2022-10-20T23:12:32;17.83;;;6.78;;
72319;SDS011;60269;52.502;16.732;2022-10-20T23:16:05;18.80;;;6.37;;
72319;SDS011;60269;52.502;16.732;2022-10-20T23:19:39;15.73;;;7.23;;
72319;SDS011;60269;52.502;16.732;2022-10-20T23:23:25;17.95;;;6.45;;
72319;SDS011;60269;52.502;16.732;2022-10-20T23:26:57;17.83;;;7.15;;